Terminal Aerodrome Forecast
Issued by NWS

Home | Current Version | Previous Version | Text Only | Print | Product List | Glossary On
Versions: 1 2 3 4 5 6 7 8 9 10 11 12 13 14 15
546
FTUS43 KGRR 271527 AAB
TAFMKG
TAF AMD
KMKG 271527Z 2715/2812 21024G32KT P6SM OVC007
      TEMPO 2715/2718 2SM -RA BR
     FM271900 24016G24KT P6SM OVC015
     FM280000 24013KT P6SM OVC025
     FM280300 23008KT P6SM BKN050=

USA.gov is the U.S. government's official web portal to all federal, state and local government web resources and services.